Time;durP1;ratioP1;P1;durP2;ratioP2;P2;SDS_P1;SDS_P2;PMS_P1;PMS_P2;Temp;Humidity;BMP_temperature;BMP_pressure;BME280_temperature;BME280_humidity;BME280_pressure;Samples;Min_cycle;Max_cycle;Signal;HPM_P1;HPM_P2
2023/06/02 10:10:37;;;;;;;;;;;;;;;;;;4981010;28;19968;-93
2023/06/02 10:13:03;;;;;;;;;;;;;;;;;;5015252;28;20328;-92
2023/06/02 10:15:40;;;;;;;;;;;;;;;;;;5015186;28;19920;-92
2023/06/02 10:18:24;;;;;;;;;;;;;;;;;;5015303;28;19913;-94
2023/06/02 10:21:08;;;;;;;;;;;;;;;;;;4997679;28;19913;-93
2023/06/02 10:23:52;;;;;;;;;;;;;;;;;;5015291;28;19968;-93
2023/06/02 10:26:23;;;;;;;;;;;;;;;;;;4997689;28;20080;-94
2023/06/02 10:28:49;;;;;;;;;;;;;;;;;;5031511;28;19935;-93
2023/06/02 10:31:15;;;;;;;;;;;;;;;;;;5001300;28;19952;-94
2023/06/02 10:33:41;;;;;;;;;;;;;;;;;;5017991;28;19960;-93
2023/06/02 10:36:06;;;;;;;;;;;;;;;;;;5027838;28;19913;-91
2023/06/02 10:38:31;;;;;;;;;;;;;;;;;;5004336;28;19905;-93
2023/06/02 10:40:57;;;;;;;;;;;;;;;;;;5020799;28;19913;-94
2023/06/02 10:43:23;;;;;;;;;;;;;;;;;;5015983;28;20000;-92
2023/06/02 10:45:49;;;;;;;;;;;;;;;;;;5024122;28;19949;-96
2023/06/02 10:48:33;;;;;;;;;;;;;;;;;;5044490;28;19913;-96
2023/06/02 10:50:59;;;;;;;;;;;;;;;;;;5027742;28;19909;-94
2023/06/02 10:53:24;;;;;;;;;;;;;;;;;;5043690;28;19920;-91
2023/06/02 10:55:49;;;;;;;;;;;;;;;;;;5017708;28;20011;-93
2023/06/02 10:58:15;;;;;;;;;;;;;;;;;;5020699;28;20330;-87
2023/06/02 11:00:45;;;;;;;;;;;;;;;;;;5036897;28;20372;-91
2023/06/02 11:03:13;;;;;;;;;;;;;;;;;;5027350;28;20413;-94
2023/06/02 11:05:38;;;;;;;;;;;;;;;;;;5040721;28;19913;-91
2023/06/02 11:08:14;;;;;;;;;;;;;;;;;;5050151;28;19921;-92
2023/06/02 11:10:49;;;;;;;;;;;;;;;;;;5035174;28;19924;-81
2023/06/02 11:13:18;;;;;;;;;;;;;;;;;;5023006;28;20381;-89
2023/06/02 11:16:06;;;;;;;;;;;;;;;;;;5023927;28;19995;-82
2023/06/02 11:18:31;;;;;;;;;;;;;;;;;;5015077;28;19913;-84
2023/06/02 11:20:57;;;;;;;;;;;;;;;;;;5039700;28;20359;-92
2023/06/02 11:23:23;;;;;;;;;;;;;;;;;;5038471;28;19920;-84
2023/06/02 11:25:50;;;;;;;;;;;;;;;;;;5039252;28;19913;-82
2023/06/02 11:28:22;;;;;;;;;;;;;;;;;;5026297;28;19913;-87
2023/06/02 11:31:08;;;;;;;;;;;;;;;;;;5023116;28;19913;-88
2023/06/02 11:33:34;;;;;;;;;;;;;;;;;;5020185;28;19920;-89
2023/06/02 11:36:03;;;;;;;;;;;;;;;;;;5001385;28;19985;-89
2023/06/02 11:38:32;;;;;;;;;;;;;;;;;;5020182;28;19913;-88
2023/06/02 11:41:21;;;;;;;;;;;;;;;;;;5001520;28;19919;-91
2023/06/02 11:43:50;;;;;;;;;;;;;;;;;;4999704;28;19917;-90
2023/06/02 11:46:16;;;;;;;;;;;;;;;;;;5018803;28;19916;-89
2023/06/02 11:48:42;;;;;;;;;;;;;;;;;;5036732;28;19913;-88
2023/06/02 11:51:08;;;;;;;;;;;;;;;;;;5036684;28;20390;-87
2023/06/02 11:53:34;;;;;;;;;;;;;;;;;;5036865;28;20424;-89
2023/06/02 11:55:59;;;;;;;;;;;;;;;;;;5018911;28;19913;-88
2023/06/02 11:58:27;;;;;;;;;;;;;;;;;;5036504;28;19913;-87
2023/06/02 12:00:53;;;;;;;;;;;;;;;;;;5036489;28;20362;-89
2023/06/02 12:03:18;;;;;;;;;;;;;;;;;;5018686;28;19913;-90
2023/06/02 12:05:45;;;;;;;;;;;;;;;;;;5036350;28;20020;-89
2023/06/02 12:08:15;;;;;;;;;;;;;;;;;;5018777;28;19960;-88
2023/06/02 12:10:41;;;;;;;;;;;;;;;;;;5036198;28;19944;-89
2023/06/02 12:13:07;;;;;;;;;;;;;;;;;;5035257;28;19920;-88
2023/06/02 12:15:33;;;;;;;;;;;;;;;;;;5018134;28;19913;-89
2023/06/02 12:18:00;;;;;;;;;;;;;;;;;;5017821;28;20419;-89
2023/06/02 12:20:35;;;;;;;;;;;;;;;;;;4998652;28;20410;-89
2023/06/02 12:23:00;;;;;;;;;;;;;;;;;;5016231;28;20445;-87
2023/06/02 12:25:26;;;;;;;;;;;;;;;;;;4998617;28;20054;-89
2023/06/02 12:27:51;;;;;;;;;;;;;;;;;;5017541;28;19914;-89
2023/06/02 12:30:17;;;;;;;;;;;;;;;;;;5000211;28;20383;-89
2023/06/02 12:32:42;;;;;;;;;;;;;;;;;;5018305;28;19914;-90
2023/06/02 12:35:08;;;;;;;;;;;;;;;;;;4999637;28;19979;-88
2023/06/02 12:37:33;;;;;;;;;;;;;;;;;;4998260;28;19913;-89
2023/06/02 12:39:58;;;;;;;;;;;;;;;;;;4998315;28;19920;-89
2023/06/02 12:42:24;;;;;;;;;;;;;;;;;;5015799;28;20343;-89
2023/06/02 12:44:51;;;;;;;;;;;;;;;;;;5015857;28;19920;-89
2023/06/02 12:47:17;;;;;;;;;;;;;;;;;;4997980;28;19922;-88
2023/06/02 12:49:42;;;;;;;;;;;;;;;;;;4998101;28;19913;-89
2023/06/02 12:52:07;;;;;;;;;;;;;;;;;;4998106;28;19959;-90
2023/06/02 12:54:33;;;;;;;;;;;;;;;;;;5015819;28;19913;-89
2023/06/02 12:56:58;;;;;;;;;;;;;;;;;;4998016;28;19913;-90
2023/06/02 12:59:23;;;;;;;;;;;;;;;;;;5018858;28;20310;-90
2023/06/02 13:01:49;;;;;;;;;;;;;;;;;;5015280;28;19984;-88
2023/06/02 13:04:14;;;;;;;;;;;;;;;;;;4997835;28;19967;-90
2023/06/02 13:06:40;;;;;;;;;;;;;;;;;;4998026;28;20327;-90
2023/06/02 13:09:05;;;;;;;;;;;;;;;;;;4997758;28;19921;-91
2023/06/02 13:11:30;;;;;;;;;;;;;;;;;;5015581;28;19948;-91
2023/06/02 13:13:58;;;;;;;;;;;;;;;;;;5015404;28;19920;-92
2023/06/02 13:16:24;;;;;;;;;;;;;;;;;;4997857;28;19918;-92
2023/06/02 13:18:50;;;;;;;;;;;;;;;;;;4998030;28;20000;-93
2023/06/02 13:21:16;;;;;;;;;;;;;;;;;;4997706;28;19963;-93
2023/06/02 13:23:41;;;;;;;;;;;;;;;;;;4997807;28;19914;-92
2023/06/02 13:26:06;;;;;;;;;;;;;;;;;;4997460;28;19920;-92
2023/06/02 13:28:32;;;;;;;;;;;;;;;;;;4997666;28;19913;-94
2023/06/02 13:30:58;;;;;;;;;;;;;;;;;;4998680;28;20016;-94
2023/06/02 13:33:23;;;;;;;;;;;;;;;;;;5015876;28;19913;-94
2023/06/02 13:35:48;;;;;;;;;;;;;;;;;;5018992;28;19983;-93
2023/06/02 13:38:14;;;;;;;;;;;;;;;;;;5008915;28;20423;-93
2023/06/02 13:40:39;;;;;;;;;;;;;;;;;;5008313;28;19913;-93
2023/06/02 13:43:04;;;;;;;;;;;;;;;;;;5015457;28;20004;-91
2023/06/02 13:45:30;;;;;;;;;;;;;;;;;;5011598;28;19952;-91
2023/06/02 13:47:55;;;;;;;;;;;;;;;;;;5017172;28;19913;-92
2023/06/02 13:50:21;;;;;;;;;;;;;;;;;;5035354;28;20279;-90
2023/06/02 13:52:46;;;;;;;;;;;;;;;;;;5013508;28;20347;-92
2023/06/02 13:55:12;;;;;;;;;;;;;;;;;;4997979;28;19913;-93
2023/06/02 13:57:37;;;;;;;;;;;;;;;;;;4998161;28;19945;-93
2023/06/02 14:00:03;;;;;;;;;;;;;;;;;;4997824;28;19920;-92
2023/06/02 14:02:28;;;;;;;;;;;;;;;;;;5015638;28;20356;-93
2023/06/02 14:04:54;;;;;;;;;;;;;;;;;;5000597;28;19932;-94
2023/06/02 14:07:19;;;;;;;;;;;;;;;;;;5000376;28;19914;-94
2023/06/02 14:09:45;;;;;;;;;;;;;;;;;;5001147;28;20003;-94
2023/06/02 14:12:10;;;;;;;;;;;;;;;;;;5017591;28;20103;-95
2023/06/02 14:14:35;;;;;;;;;;;;;;;;;;5017981;28;19928;-93
2023/06/02 14:17:01;;;;;;;;;;;;;;;;;;5034740;28;19917;-92
2023/06/02 17:45:53;;;;;;;;;;;;;;;;;;4979091;28;19925;-93
2023/06/02 17:48:18;;;;;;;;;;;;;;;;;;4976231;28;19922;-93
2023/06/02 17:50:44;;;;;;;;;;;;;;;;;;4959545;28;19924;-89
2023/06/02 17:53:09;;;;;;;;;;;;;;;;;;4976730;28;19914;-93
2023/06/02 17:55:35;;;;;;;;;;;;;;;;;;4977804;28;19914;-89
2023/06/02 17:58:02;;;;;;;;;;;;;;;;;;4978099;28;19930;-90
2023/06/02 18:00:28;;;;;;;;;;;;;;;;;;4961729;28;20266;-93
2023/06/02 18:02:53;;;;;;;;;;;;;;;;;;4942466;29;20128;-93
2023/06/02 18:05:19;;;;;;;;;;;;;;;;;;4957133;29;19914;-91
2023/06/02 18:07:45;;;;;;;;;;;;;;;;;;4939961;29;19922;-93
2023/06/02 18:10:10;;;;;;;;;;;;;;;;;;4939762;28;19915;-93
2023/06/02 18:12:36;;;;;;;;;;;;;;;;;;4922798;29;19950;-88
2023/06/02 18:15:01;;;;;;;;;;;;;;;;;;4956687;29;19949;-92
2023/06/02 18:17:26;;;;;;;;;;;;;;;;;;4956967;29;20332;-90
2023/06/02 18:19:52;;;;;;;;;;;;;;;;;;4974504;28;20353;-90
2023/06/02 18:22:18;;;;;;;;;;;;;;;;;;4958329;28;19914;-90
2023/06/02 18:24:43;;;;;;;;;;;;;;;;;;4976365;28;20004;-91
2023/06/02 18:27:09;;;;;;;;;;;;;;;;;;4959246;28;20276;-92
2023/06/02 18:29:36;;;;;;;;;;;;;;;;;;4976284;28;20017;-94
2023/06/02 18:32:03;;;;;;;;;;;;;;;;;;4976848;28;19914;-94
2023/06/02 18:34:28;;;;;;;;;;;;;;;;;;4976672;28;19914;-96
2023/06/02 18:36:54;;;;;;;;;;;;;;;;;;4977549;28;20345;-96
2023/06/02 18:39:20;;;;;;;;;;;;;;;;;;4946508;29;19925;-93
2023/06/02 18:41:45;;;;;;;;;;;;;;;;;;4940116;28;20281;-92
2023/06/02 18:44:11;;;;;;;;;;;;;;;;;;4947670;28;19918;-90
2023/06/02 18:46:36;;;;;;;;;;;;;;;;;;4959825;28;19929;-92
2023/06/02 18:49:02;;;;;;;;;;;;;;;;;;4960239;28;19914;-95
2023/06/02 18:51:27;;;;;;;;;;;;;;;;;;4968086;28;19910;-96
2023/06/02 18:53:52;;;;;;;;;;;;;;;;;;4984298;28;19917;-92
2023/06/02 18:56:17;;;;;;;;;;;;;;;;;;4962456;28;19922;-96
2023/06/02 18:58:43;;;;;;;;;;;;;;;;;;4966686;28;20005;-96
2023/06/02 19:01:08;;;;;;;;;;;;;;;;;;4954449;28;19921;-96
2023/06/02 19:03:33;;;;;;;;;;;;;;;;;;4967568;28;19973;-96
2023/06/02 19:05:59;;;;;;;;;;;;;;;;;;4968798;28;20271;-96
2023/06/02 19:08:24;;;;;;;;;;;;;;;;;;4958778;29;19918;-96
2023/06/02 19:10:50;;;;;;;;;;;;;;;;;;4943824;29;19916;-96
2023/06/02 19:13:15;;;;;;;;;;;;;;;;;;4982105;23;20001;-95
2023/06/02 19:15:41;;;;;;;;;;;;;;;;;;5019842;28;20375;-96
2023/06/02 19:18:06;;;;;;;;;;;;;;;;;;5030216;28;19913;-96
2023/06/02 19:20:31;;;;;;;;;;;;;;;;;;5016686;28;20031;-96
2023/06/02 19:22:57;;;;;;;;;;;;;;;;;;5025331;28;19913;-95
2023/06/02 19:25:22;;;;;;;;;;;;;;;;;;5008877;28;19913;-95
2023/06/02 19:27:47;;;;;;;;;;;;;;;;;;5018549;28;19913;-88
2023/06/02 19:30:13;;;;;;;;;;;;;;;;;;5033869;28;19920;-90
2023/06/02 19:32:42;;;;;;;;;;;;;;;;;;5037376;28;19913;-90
2023/06/02 19:35:08;;;;;;;;;;;;;;;;;;5037592;28;19913;-86
2023/06/02 19:37:34;;;;;;;;;;;;;;;;;;5030565;28;20281;-90
2023/06/02 19:39:59;;;;;;;;;;;;;;;;;;5000686;28;20003;-87
2023/06/02 19:42:25;;;;;;;;;;;;;;;;;;4999449;28;20018;-85
2023/06/02 19:44:50;;;;;;;;;;;;;;;;;;5017466;28;19914;-86
2023/06/02 19:47:15;;;;;;;;;;;;;;;;;;5016935;28;20326;-86
2023/06/02 19:49:41;;;;;;;;;;;;;;;;;;5017531;28;19984;-86
2023/06/02 19:52:07;;;;;;;;;;;;;;;;;;5017386;28;19917;-87
2023/06/02 19:54:32;;;;;;;;;;;;;;;;;;5009182;28;20298;-87
2023/06/02 19:56:57;;;;;;;;;;;;;;;;;;5029492;28;19954;-88
2023/06/02 19:59:22;;;;;;;;;;;;;;;;;;4999866;28;19993;-88
2023/06/02 20:01:48;;;;;;;;;;;;;;;;;;5029173;28;19913;-87
2023/06/02 20:04:13;;;;;;;;;;;;;;;;;;5019711;28;20269;-86
2023/06/02 20:06:38;;;;;;;;;;;;;;;;;;5003665;28;20287;-87
2023/06/02 20:09:06;;;;;;;;;;;;;;;;;;5037257;28;19917;-87
2023/06/02 20:11:32;;;;;;;;;;;;;;;;;;5026505;28;19920;-88
2023/06/02 20:14:00;;;;;;;;;;;;;;;;;;5017466;28;19917;-87
2023/06/02 20:16:25;;;;;;;;;;;;;;;;;;5019859;28;19921;-87
2023/06/02 20:18:51;;;;;;;;;;;;;;;;;;5019074;28;19936;-88
2023/06/02 20:21:16;;;;;;;;;;;;;;;;;;5019267;28;20285;-86
2023/06/02 20:23:41;;;;;;;;;;;;;;;;;;5019046;28;19914;-87
2023/06/02 20:26:07;;;;;;;;;;;;;;;;;;5019401;28;19936;-87
2023/06/02 20:28:32;;;;;;;;;;;;;;;;;;5036081;28;19913;-87
2023/06/02 20:30:57;;;;;;;;;;;;;;;;;;5036123;28;19913;-86
2023/06/02 20:33:23;;;;;;;;;;;;;;;;;;5018394;28;19920;-87
2023/06/02 20:35:48;;;;;;;;;;;;;;;;;;5035480;28;19913;-86
2023/06/02 20:38:13;;;;;;;;;;;;;;;;;;5035927;28;20257;-87
2023/06/02 20:40:39;;;;;;;;;;;;;;;;;;5036178;28;19920;-87
2023/06/02 20:43:04;;;;;;;;;;;;;;;;;;5035927;28;19913;-86
2023/06/02 20:45:29;;;;;;;;;;;;;;;;;;5035509;28;19913;-86
2023/06/02 20:47:55;;;;;;;;;;;;;;;;;;5017797;28;19917;-87
2023/06/02 20:50:20;;;;;;;;;;;;;;;;;;5035527;28;19996;-87
2023/06/02 20:52:46;;;;;;;;;;;;;;;;;;5035291;28;19956;-86
2023/06/02 20:55:11;;;;;;;;;;;;;;;;;;5035241;28;19913;-87
2023/06/02 20:57:36;;;;;;;;;;;;;;;;;;5035328;28;19917;-86
2023/06/02 21:00:04;;;;;;;;;;;;;;;;;;5035390;28;19912;-86
2023/06/02 21:02:30;;;;;;;;;;;;;;;;;;5017685;28;19913;-87
2023/06/02 21:04:55;;;;;;;;;;;;;;;;;;5017570;28;19917;-86
2023/06/02 21:07:20;;;;;;;;;;;;;;;;;;5035435;28;20008;-86
2023/06/02 21:09:46;;;;;;;;;;;;;;;;;;5035287;28;19913;-86
2023/06/02 21:12:11;;;;;;;;;;;;;;;;;;5035159;28;19917;-86
2023/06/02 21:14:37;;;;;;;;;;;;;;;;;;5035025;28;19917;-86
2023/06/02 21:17:04;;;;;;;;;;;;;;;;;;5017317;28;19913;-86
2023/06/02 21:19:29;;;;;;;;;;;;;;;;;;5035196;28;19943;-87
2023/06/02 21:21:54;;;;;;;;;;;;;;;;;;5035218;28;19913;-87
2023/06/02 21:24:20;;;;;;;;;;;;;;;;;;5017319;28;19959;-87
2023/06/02 21:26:46;;;;;;;;;;;;;;;;;;5017178;28;20282;-86
2023/06/02 21:29:11;;;;;;;;;;;;;;;;;;5035478;28;19913;-86
2023/06/02 21:31:36;;;;;;;;;;;;;;;;;;5017014;28;19955;-86
2023/06/02 21:34:02;;;;;;;;;;;;;;;;;;5034940;28;20356;-86
2023/06/02 21:36:27;;;;;;;;;;;;;;;;;;5034733;28;19968;-87
2023/06/02 21:38:53;;;;;;;;;;;;;;;;;;5034899;28;19951;-87
2023/06/02 21:41:19;;;;;;;;;;;;;;;;;;5034942;28;20067;-86
2023/06/02 21:43:44;;;;;;;;;;;;;;;;;;5034729;28;20383;-86
2023/06/02 21:46:09;;;;;;;;;;;;;;;;;;5017094;28;19913;-87
2023/06/02 21:48:35;;;;;;;;;;;;;;;;;;5034590;28;19968;-87
2023/06/02 21:51:00;;;;;;;;;;;;;;;;;;5017217;28;19909;-87
2023/06/02 21:53:25;;;;;;;;;;;;;;;;;;5016853;28;19952;-87
2023/06/02 21:55:51;;;;;;;;;;;;;;;;;;5034640;28;19908;-87
2023/06/02 21:58:16;;;;;;;;;;;;;;;;;;5034255;28;20455;-87
2023/06/02 22:00:41;;;;;;;;;;;;;;;;;;5034556;28;20342;-86
2023/06/02 22:03:07;;;;;;;;;;;;;;;;;;5016824;28;19909;-87
2023/06/02 22:05:32;;;;;;;;;;;;;;;;;;5016411;28;19913;-87
2023/06/02 22:07:57;;;;;;;;;;;;;;;;;;5034206;28;19953;-87
2023/06/02 22:10:23;;;;;;;;;;;;;;;;;;5034500;28;19960;-87
2023/06/02 22:12:48;;;;;;;;;;;;;;;;;;5016506;28;19928;-86
2023/06/02 22:15:13;;;;;;;;;;;;;;;;;;5016870;28;19913;-87
2023/06/02 22:17:39;;;;;;;;;;;;;;;;;;5034379;28;19996;-87
2023/06/02 22:20:05;;;;;;;;;;;;;;;;;;5017507;28;19937;-87
2023/06/02 22:22:30;;;;;;;;;;;;;;;;;;5034304;28;19922;-87
2023/06/02 22:24:56;;;;;;;;;;;;;;;;;;5034110;28;19913;-87
2023/06/02 22:27:21;;;;;;;;;;;;;;;;;;5034398;28;20413;-87
2023/06/02 22:29:47;;;;;;;;;;;;;;;;;;5034197;28;20000;-86
2023/06/02 22:32:12;;;;;;;;;;;;;;;;;;5034340;28;19920;-87
2023/06/02 22:34:37;;;;;;;;;;;;;;;;;;5034101;28;19917;-87
2023/06/02 22:37:03;;;;;;;;;;;;;;;;;;5034378;28;19919;-86
2023/06/02 22:39:28;;;;;;;;;;;;;;;;;;5034628;28;20015;-87
2023/06/02 22:41:53;;;;;;;;;;;;;;;;;;5034273;28;19913;-87
2023/06/02 22:44:19;;;;;;;;;;;;;;;;;;5016629;28;20356;-87
2023/06/02 22:46:44;;;;;;;;;;;;;;;;;;5016320;28;19913;-87
2023/06/02 22:49:10;;;;;;;;;;;;;;;;;;5034004;28;19913;-87
2023/06/02 22:51:36;;;;;;;;;;;;;;;;;;5033995;28;20367;-86
2023/06/02 22:54:02;;;;;;;;;;;;;;;;;;5034458;28;19913;-86
2023/06/02 22:56:27;;;;;;;;;;;;;;;;;;5034041;28;20403;-87
